createdAt,value
2022-09-26T00:02:47.989Z,56.50
2022-09-26T00:05:55.410Z,56.70
2022-09-26T00:09:03.435Z,56.60
2022-09-26T00:12:13.991Z,56.70
2022-09-26T00:15:21.573Z,56.60
2022-09-26T00:18:29.388Z,56.60
2022-09-26T00:21:37.776Z,56.70
2022-09-26T00:24:45.152Z,56.60
2022-09-26T00:27:55.333Z,56.60
2022-09-26T00:31:07.090Z,56.70
2022-09-26T00:34:15.558Z,56.70
2022-09-26T00:37:22.955Z,56.70
2022-09-26T00:40:30.900Z,56.70
2022-09-26T00:43:43.461Z,56.70
2022-09-26T00:46:52.391Z,56.70
2022-09-26T00:50:03.565Z,56.70
2022-09-26T00:53:16.476Z,56.70
2022-09-26T00:56:30.475Z,56.70
2022-09-26T00:59:43.730Z,56.80
2022-09-26T01:02:51.926Z,56.80
2022-09-26T01:06:00.338Z,56.80
2022-09-26T01:09:12.849Z,56.80
2022-09-26T01:12:21.515Z,56.90
2022-09-26T01:15:32.258Z,56.90
2022-09-26T01:18:40.006Z,56.90
2022-09-26T01:22:15.227Z,56.90
2022-09-26T01:25:27.178Z,57.00
2022-09-26T01:28:53.555Z,57.00
2022-09-26T01:32:30.031Z,57.00
2022-09-26T01:36:02.188Z,57.10
2022-09-26T01:39:25.926Z,57.10
2022-09-26T01:42:42.309Z,57.10
2022-09-26T01:45:57.626Z,57.10
2022-09-26T01:49:14.339Z,57.10
2022-09-26T01:52:30.556Z,57.20
2022-09-26T01:55:41.779Z,57.10
2022-09-26T01:58:53.276Z,57.10
2022-09-26T02:02:04.952Z,57.20
2022-09-26T02:05:20.919Z,57.20
2022-09-26T02:08:33.767Z,57.20
2022-09-26T02:11:44.554Z,57.20
2022-09-26T02:14:55.642Z,57.20
2022-09-26T02:18:08.366Z,57.30
2022-09-26T02:21:22.062Z,57.30
2022-09-26T02:24:30.657Z,57.30
2022-09-26T02:27:38.509Z,57.40
2022-09-26T02:30:49.483Z,57.40
2022-09-26T02:33:57.306Z,57.40
2022-09-26T02:37:08.673Z,57.50
2022-09-26T02:40:16.409Z,57.40
2022-09-26T02:43:47.515Z,57.50
2022-09-26T02:47:28.567Z,57.50
2022-09-26T02:50:50.121Z,57.50
2022-09-26T02:54:13.115Z,57.60
2022-09-26T02:57:32.942Z,57.60
2022-09-26T03:00:54.697Z,57.70
2022-09-26T03:04:09.502Z,57.70
2022-09-26T03:07:22.173Z,57.70
2022-09-26T03:10:34.444Z,57.80
2022-09-26T03:13:43.417Z,57.80
2022-09-26T03:16:52.485Z,57.80
2022-09-26T03:20:02.964Z,57.80
2022-09-26T03:23:10.723Z,57.80
2022-09-26T03:26:24.878Z,57.80
2022-09-26T03:29:33.318Z,57.80
2022-09-26T03:32:40.878Z,57.80
2022-09-26T03:35:49.221Z,57.80
2022-09-26T03:38:56.682Z,57.80
2022-09-26T03:42:06.915Z,57.80
2022-09-26T03:45:14.712Z,57.80
2022-09-26T03:48:22.571Z,57.90
2022-09-26T03:51:30.026Z,57.90
2022-09-26T03:54:37.950Z,57.90
2022-09-26T03:57:48.229Z,57.90
2022-09-26T04:00:55.547Z,58.00
2022-09-26T04:04:02.990Z,58.00
2022-09-26T04:07:10.534Z,58.10
2022-09-26T04:10:17.986Z,58.10
2022-09-26T04:13:50.080Z,58.10
2022-09-26T04:16:55.666Z,58.10
2022-09-26T04:20:03.237Z,58.10
2022-09-26T04:23:10.854Z,58.10
2022-09-26T04:26:23.283Z,58.10
2022-09-26T04:29:33.950Z,58.10
2022-09-26T04:32:41.170Z,58.10
2022-09-26T04:35:50.828Z,58.10
2022-09-26T04:39:05.928Z,58.30
2022-09-26T04:42:13.511Z,58.30
2022-09-26T04:45:23.928Z,58.30
2022-09-26T04:48:31.898Z,58.30
2022-09-26T04:51:39.416Z,58.30
2022-09-26T04:54:46.882Z,58.30
2022-09-26T04:57:54.291Z,58.30
2022-09-26T05:01:10.208Z,58.30
2022-09-26T05:04:17.787Z,58.30
2022-09-26T05:07:25.857Z,58.30
2022-09-26T05:10:33.333Z,58.30
2022-09-26T05:13:41.084Z,58.30
2022-09-26T05:16:51.474Z,58.30
2022-09-26T05:20:01.262Z,58.30
2022-09-26T05:23:10.718Z,58.30
2022-09-26T05:26:20.260Z,58.30
2022-09-26T05:29:27.716Z,58.30
2022-09-26T05:32:38.073Z,58.30
2022-09-26T05:35:45.953Z,58.40
2022-09-26T05:38:53.423Z,58.40
2022-09-26T05:41:59.743Z,58.40
2022-09-26T05:45:08.345Z,58.50
2022-09-26T05:48:18.581Z,58.40
2022-09-26T05:51:26.412Z,58.50
2022-09-26T05:54:34.187Z,58.40
2022-09-26T05:57:41.702Z,58.50
2022-09-26T06:00:51.852Z,58.50
2022-09-26T06:04:03.098Z,58.50
2022-09-26T06:07:10.748Z,58.50
2022-09-26T06:10:18.257Z,58.60
2022-09-26T06:13:25.716Z,58.60
2022-09-26T06:16:33.323Z,58.60
2022-09-26T06:19:43.694Z,58.60
2022-09-26T06:22:51.142Z,58.60
2022-09-26T06:25:59.302Z,58.60
2022-09-26T06:29:07.874Z,58.60
2022-09-26T06:32:16.226Z,58.50
2022-09-26T06:35:26.424Z,58.60
2022-09-26T06:38:33.974Z,58.60
2022-09-26T06:41:41.375Z,58.60
2022-09-26T06:44:48.976Z,58.60
2022-09-26T06:47:57.092Z,58.60
2022-09-26T06:51:07.582Z,58.50
2022-09-26T06:54:15.219Z,58.50
2022-09-26T06:57:23.193Z,58.50
2022-09-26T07:00:31.823Z,58.40
2022-09-26T07:03:45.101Z,58.20
2022-09-26T07:06:58.424Z,58.00
2022-09-26T07:10:05.885Z,58.50
2022-09-26T07:13:13.991Z,59.20
2022-09-26T07:16:21.475Z,59.70
2022-09-26T07:19:29.313Z,59.70
2022-09-26T07:22:39.878Z,59.70
2022-09-26T07:25:49.495Z,59.70
2022-09-26T07:28:57.106Z,59.70
2022-09-26T07:32:04.600Z,59.50
2022-09-26T07:35:12.730Z,59.40
2022-09-26T07:38:23.096Z,59.30
2022-09-26T07:41:31.759Z,59.20
2022-09-26T07:45:21.849Z,59.00
2022-09-26T07:48:22.491Z,59.10
2022-09-26T07:51:31.659Z,59.20
2022-09-26T07:54:41.919Z,59.20
2022-09-26T07:57:50.269Z,59.30
2022-09-26T08:00:57.856Z,59.30
2022-09-26T08:04:06.699Z,59.20
2022-09-26T08:07:15.186Z,59.10
2022-09-26T08:10:26.475Z,59.50
2022-09-26T08:13:35.658Z,59.70
2022-09-26T08:16:43.169Z,59.20
2022-09-26T08:19:50.827Z,59.50
2022-09-26T08:22:58.827Z,59.70
2022-09-26T08:26:10.085Z,59.50
2022-09-26T08:29:20.712Z,59.60
2022-09-26T08:32:28.131Z,59.60
2022-09-26T08:35:38.759Z,59.60
2022-09-26T08:38:46.601Z,59.50
2022-09-26T08:42:09.829Z,59.30
2022-09-26T08:45:58.063Z,59.20
2022-09-26T08:49:26.312Z,59.20
2022-09-26T08:52:40.545Z,59.30
2022-09-26T08:55:50.951Z,59.30
2022-09-26T08:59:05.850Z,59.30
2022-09-26T09:02:21.652Z,59.20
2022-09-26T09:05:33.201Z,59.20
2022-09-26T09:08:43.978Z,59.20
2022-09-26T09:12:11.591Z,59.20
2022-09-26T09:15:38.177Z,59.20
2022-09-26T09:18:52.258Z,59.20
2022-09-26T09:22:27.226Z,59.20
2022-09-26T09:25:38.839Z,59.30
2022-09-26T09:29:10.369Z,59.30
2022-09-26T09:32:24.955Z,59.40
2022-09-26T09:35:38.523Z,59.40
2022-09-26T09:38:49.132Z,59.30
2022-09-26T09:42:00.249Z,59.30
2022-09-26T09:45:10.933Z,59.30
2022-09-26T09:48:21.262Z,59.30
2022-09-26T09:51:42.380Z,59.30
2022-09-26T09:55:04.744Z,59.30
2022-09-26T09:58:30.128Z,59.30
2022-09-26T10:01:41.802Z,59.30
2022-09-26T10:05:02.387Z,59.30
2022-09-26T10:08:15.203Z,59.20
2022-09-26T10:11:29.638Z,59.20
2022-09-26T10:14:44.451Z,59.10
2022-09-26T10:18:23.561Z,59.10
2022-09-26T10:21:40.896Z,59.10
2022-09-26T10:24:50.909Z,59.20
2022-09-26T10:27:59.481Z,59.20
2022-09-26T10:31:11.066Z,59.10
2022-09-26T10:34:28.234Z,59.20
2022-09-26T10:37:42.039Z,59.10
2022-09-26T10:40:55.557Z,59.00
2022-09-26T10:44:04.138Z,59.00
2022-09-26T10:47:18.254Z,58.80
2022-09-26T10:50:31.378Z,58.70
2022-09-26T10:53:43.497Z,58.60
2022-09-26T10:56:54.534Z,58.50
2022-09-26T11:00:06.834Z,58.40
2022-09-26T11:03:17.305Z,58.50
2022-09-26T11:06:29.714Z,58.40
2022-09-26T11:09:41.371Z,58.40
2022-09-26T11:13:00.447Z,58.50
2022-09-26T11:16:13.389Z,58.60
2022-09-26T11:19:34.253Z,58.50
2022-09-26T11:22:47.929Z,58.50
2022-09-26T11:26:08.890Z,58.40
2022-09-26T11:29:20.763Z,58.40
2022-09-26T11:32:33.265Z,58.30
2022-09-26T11:35:48.780Z,58.30
2022-09-26T11:39:02.503Z,58.30
2022-09-26T11:42:26.164Z,58.30
2022-09-26T11:45:47.271Z,58.30
2022-09-26T11:49:11.256Z,58.30
2022-09-26T11:52:49.484Z,58.30
2022-09-26T11:56:16.133Z,58.60
2022-09-26T11:59:49.829Z,58.70
2022-09-26T12:03:18.004Z,58.60
2022-09-26T12:06:33.860Z,58.60
2022-09-26T12:09:58.347Z,58.60
2022-09-26T12:13:34.619Z,58.60
2022-09-26T12:16:55.361Z,58.70
2022-09-26T12:20:15.884Z,58.80
2022-09-26T12:23:29.912Z,58.80
2022-09-26T12:26:49.232Z,58.90
2022-09-26T12:30:06.353Z,58.80
2022-09-26T12:33:38.074Z,58.80
2022-09-26T12:36:59.554Z,58.80
2022-09-26T12:40:20.982Z,58.80
2022-09-26T12:43:49.271Z,58.80
2022-09-26T12:47:23.405Z,58.80
2022-09-26T12:50:44.074Z,58.80
2022-09-26T12:54:22.096Z,58.80
2022-09-26T12:57:38.846Z,58.80
2022-09-26T13:00:56.732Z,58.80
2022-09-26T13:04:28.799Z,58.80
2022-09-26T13:07:50.818Z,58.80
2022-09-26T13:11:09.058Z,58.80
2022-09-26T13:14:46.955Z,58.80
2022-09-26T13:17:59.323Z,58.70
2022-09-26T13:21:12.478Z,58.70
2022-09-26T13:24:27.257Z,58.70
2022-09-26T13:27:39.291Z,58.60
2022-09-26T13:30:52.246Z,58.70
2022-09-26T13:34:04.409Z,58.60
2022-09-26T13:37:21.159Z,58.60
2022-09-26T13:40:42.236Z,58.70
2022-09-26T13:44:05.465Z,58.70
2022-09-26T13:47:21.612Z,58.80
2022-09-26T13:50:35.774Z,58.70
2022-09-26T13:53:51.343Z,58.80
2022-09-26T13:57:01.564Z,58.80
2022-09-26T14:00:49.495Z,58.80
2022-09-26T14:04:21.777Z,58.80
2022-09-26T14:08:05.177Z,58.80
2022-09-26T14:11:24.716Z,58.80
2022-09-26T14:14:53.979Z,58.90
2022-09-26T14:18:21.127Z,58.90
2022-09-26T14:21:40.255Z,58.90
2022-09-26T14:24:48.260Z,58.90
2022-09-26T14:28:17.538Z,58.80
2022-09-26T14:32:02.266Z,58.90
2022-09-26T14:35:21.773Z,59.00
2022-09-26T14:38:29.152Z,59.00
2022-09-26T14:41:38.879Z,59.00
2022-09-26T14:44:54.428Z,59.00
2022-09-26T14:48:16.015Z,59.00
2022-09-26T14:51:29.368Z,59.00
2022-09-26T14:54:43.383Z,59.10
2022-09-26T14:57:51.540Z,59.00
2022-09-26T15:01:02.876Z,59.00
2022-09-26T15:04:21.133Z,59.00
2022-09-26T15:07:30.420Z,59.10
2022-09-26T15:10:43.276Z,59.10
2022-09-26T15:13:52.365Z,59.00
2022-09-26T15:16:59.817Z,59.10
2022-09-26T15:20:16.003Z,59.10
2022-09-26T15:23:28.469Z,59.10
2022-09-26T15:26:39.561Z,59.10
2022-09-26T15:29:49.419Z,59.10
2022-09-26T15:33:00.519Z,59.10
2022-09-26T15:36:16.850Z,59.20
2022-09-26T15:39:43.863Z,59.20
2022-09-26T15:43:02.670Z,59.20
2022-09-26T15:46:23.671Z,59.20
2022-09-26T15:49:31.705Z,59.20
2022-09-26T15:52:46.880Z,59.20
2022-09-26T15:55:58.490Z,59.10
2022-09-26T15:59:13.016Z,59.00
2022-09-26T16:02:28.131Z,59.30
2022-09-26T16:05:36.630Z,59.50
2022-09-26T16:08:46.952Z,59.50
2022-09-26T16:11:58.482Z,59.40
2022-09-26T16:15:08.817Z,59.40
2022-09-26T16:18:28.672Z,59.30
2022-09-26T16:21:37.963Z,59.20
2022-09-26T16:24:48.308Z,59.00
2022-09-26T16:28:03.215Z,59.10
2022-09-26T16:31:23.497Z,59.10
2022-09-26T16:34:31.360Z,59.00
2022-09-26T16:37:38.994Z,59.10
2022-09-26T16:40:54.552Z,59.20
2022-09-26T16:44:08.719Z,59.70
2022-09-26T16:47:37.863Z,60.40
2022-09-26T16:50:45.447Z,60.90
2022-09-26T16:53:57.216Z,60.80
2022-09-26T16:57:18.744Z,62.10
2022-09-26T17:00:47.768Z,63.20
2022-09-26T17:04:00.054Z,64.20
2022-09-26T17:07:17.433Z,64.00
2022-09-26T17:10:28.139Z,64.50
2022-09-26T17:13:40.923Z,64.60
2022-09-26T17:16:50.829Z,64.50
2022-09-26T17:19:59.840Z,64.40
2022-09-26T17:23:22.231Z,64.10
2022-09-26T17:26:36.478Z,63.70
2022-09-26T17:29:50.274Z,63.40
2022-09-26T17:32:59.227Z,63.10
2022-09-26T17:36:11.022Z,62.70
2022-09-26T17:39:25.911Z,62.60
2022-09-26T17:42:33.448Z,62.60
2022-09-26T17:45:49.030Z,62.60
2022-09-26T17:48:57.204Z,62.30
2022-09-26T17:52:14.997Z,62.10
2022-09-26T17:55:24.328Z,62.00
2022-09-26T17:58:32.594Z,61.90
2022-09-26T18:01:42.922Z,62.00
2022-09-26T18:04:52.456Z,61.80
2022-09-26T18:08:03.233Z,61.80
2022-09-26T18:11:17.409Z,61.70
2022-09-26T18:14:25.307Z,61.50
2022-09-26T18:17:35.810Z,61.50
2022-09-26T18:20:44.375Z,61.60
2022-09-26T18:23:55.833Z,61.50
2022-09-26T18:27:04.162Z,61.50
2022-09-26T18:30:14.540Z,61.40
2022-09-26T18:33:25.794Z,61.50
2022-09-26T18:36:35.297Z,61.50
2022-09-26T18:39:42.761Z,61.40
2022-09-26T18:42:50.263Z,61.40
2022-09-26T18:45:58.083Z,61.40
2022-09-26T18:49:09.206Z,61.40
2022-09-26T18:52:18.519Z,61.50
2022-09-26T18:55:43.440Z,61.50
2022-09-26T18:58:50.997Z,61.40
2022-09-26T19:01:59.821Z,61.50
2022-09-26T19:05:14.971Z,61.40
2022-09-26T19:08:32.220Z,61.30
2022-09-26T19:11:39.691Z,61.40
2022-09-26T19:14:47.802Z,61.30
2022-09-26T19:17:57.435Z,61.30
2022-09-26T19:21:10.358Z,61.30
2022-09-26T19:24:23.319Z,61.30
2022-09-26T19:27:33.342Z,61.40
2022-09-26T19:30:40.773Z,61.30
2022-09-26T19:33:50.784Z,61.30
2022-09-26T19:37:01.600Z,61.40
2022-09-26T19:40:15.967Z,61.30
2022-09-26T19:43:24.473Z,61.30
2022-09-26T19:46:32.006Z,61.30
2022-09-26T19:49:39.640Z,61.40
2022-09-26T19:52:50.090Z,61.40
2022-09-26T19:55:57.684Z,61.30
2022-09-26T19:59:05.362Z,61.30
2022-09-26T20:02:18.014Z,61.30
2022-09-26T20:05:27.105Z,61.50
2022-09-26T20:08:37.243Z,61.40
2022-09-26T20:11:44.862Z,61.30
2022-09-26T20:14:52.534Z,61.50
2022-09-26T20:18:00.651Z,61.60
2022-09-26T20:21:08.322Z,61.80
2022-09-26T20:24:20.050Z,61.80
2022-09-26T20:27:29.614Z,61.80
2022-09-26T20:30:56.911Z,61.80
2022-09-26T20:34:04.618Z,61.90
2022-09-26T20:37:14.613Z,62.10
2022-09-26T20:40:25.695Z,62.00
2022-09-26T20:43:37.226Z,62.10
2022-09-26T20:46:50.439Z,62.10
2022-09-26T20:50:00.492Z,62.10
2022-09-26T20:53:10.849Z,62.10
2022-09-26T20:56:22.725Z,62.10
2022-09-26T20:59:35.288Z,62.10
2022-09-26T21:02:46.245Z,62.20
2022-09-26T21:05:53.929Z,62.00
2022-09-26T21:09:01.464Z,62.00
2022-09-26T21:12:15.673Z,62.00
2022-09-26T21:15:23.531Z,61.90
2022-09-26T21:18:33.335Z,61.90
2022-09-26T21:21:42.614Z,62.00
2022-09-26T21:24:50.205Z,62.00
2022-09-26T21:28:03.371Z,61.90
2022-09-26T21:31:10.844Z,61.90
2022-09-26T21:34:24.514Z,62.00
2022-09-26T21:37:32.780Z,62.30
2022-09-26T21:40:43.336Z,62.60
2022-09-26T21:43:58.677Z,62.60
2022-09-26T21:47:06.180Z,62.40
2022-09-26T21:50:14.885Z,62.30
2022-09-26T21:53:25.161Z,62.30
2022-09-26T21:56:36.403Z,62.30
2022-09-26T21:59:48.064Z,62.30
2022-09-26T22:02:55.731Z,62.20
2022-09-26T22:06:07.026Z,62.20
2022-09-26T22:09:15.335Z,62.20
2022-09-26T22:12:23.604Z,62.10
2022-09-26T22:15:33.843Z,62.10
2022-09-26T22:18:42.216Z,62.10
2022-09-26T22:21:52.565Z,62.10
2022-09-26T22:25:04.172Z,62.10
2022-09-26T22:28:11.470Z,62.10
2022-09-26T22:31:22.171Z,62.00
2022-09-26T22:34:29.714Z,62.00
2022-09-26T22:37:37.345Z,62.00
2022-09-26T22:40:44.988Z,62.00
2022-09-26T22:43:52.567Z,61.90
2022-09-26T22:47:02.974Z,61.90
2022-09-26T22:50:11.001Z,61.90
2022-09-26T22:53:18.265Z,61.90
2022-09-26T22:56:25.879Z,61.80
2022-09-26T22:59:33.299Z,61.80
2022-09-26T23:02:43.723Z,61.80
2022-09-26T23:05:51.614Z,61.80
2022-09-26T23:08:59.249Z,61.80
2022-09-26T23:12:11.952Z,61.70
2022-09-26T23:15:20.257Z,61.60
2022-09-26T23:18:31.309Z,61.60
2022-09-26T23:21:39.133Z,61.70
2022-09-26T23:24:46.769Z,61.70
2022-09-26T23:27:54.317Z,61.60
2022-09-26T23:31:08.246Z,61.60
2022-09-26T23:34:18.499Z,61.60
2022-09-26T23:37:27.230Z,61.60
2022-09-26T23:40:35.071Z,61.60
2022-09-26T23:43:42.891Z,61.60
2022-09-26T23:46:50.364Z,61.50
2022-09-26T23:50:00.792Z,61.50
2022-09-26T23:53:08.159Z,61.50
2022-09-26T23:56:17.098Z,61.50
2022-09-26T23:59:24.867Z,61.50
